Time;durP1;ratioP1;P1;durP2;ratioP2;P2;SDS_P1;SDS_P2;PMS_P1;PMS_P2;Temp;Humidity;BMP_temperature;BMP_pressure;BME280_temperature;BME280_humidity;BME280_pressure;Samples;Min_cycle;Max_cycle;Signal;HPM_P1;HPM_P2
2022/10/03 00:01:25;;;;;;;14.38;5.00;;;9.20;99.90;;;;;;5044989;28;20131;-63
2022/10/03 00:03:58;;;;;;;12.77;4.32;;;9.10;99.90;;;;;;5043056;28;20083;-63
2022/10/03 00:06:41;;;;;;;22.03;5.70;;;9.10;99.90;;;;;;5038950;28;20452;-63
2022/10/03 00:09:20;;;;;;;30.95;5.70;;;9.10;99.90;;;;;;5045868;28;20287;-63
2022/10/03 00:12:14;;;;;;;16.08;6.03;;;9.10;99.90;;;;;;5046440;28;20029;-63
2022/10/03 00:15:12;;;;;;;25.00;4.97;;;9.10;99.90;;;;;;5042944;28;20091;-62
2022/10/03 00:18:01;;;;;;;25.35;5.55;;;9.00;99.90;;;;;;5042195;28;20094;-61
2022/10/03 00:21:01;;;;;;;28.02;6.63;;;9.00;99.90;;;;;;5045942;28;20036;-61
2022/10/03 00:23:53;;;;;;;18.00;6.45;;;9.00;99.90;;;;;;5036887;28;20032;-63
2022/10/03 00:26:40;;;;;;;29.05;7.03;;;9.00;99.90;;;;;;5026782;28;20803;-63
2022/10/03 00:29:30;;;;;;;17.67;5.35;;;8.90;99.90;;;;;;5032411;28;20020;-63
2022/10/03 00:32:31;;;;;;;32.20;6.90;;;8.80;99.90;;;;;;5045735;28;20033;-63
2022/10/03 00:35:12;;;;;;;23.15;7.03;;;8.80;99.90;;;;;;5034967;28;20034;-63
2022/10/03 00:38:01;;;;;;;28.33;7.28;;;8.70;99.90;;;;;;5045843;28;20024;-63
2022/10/03 00:40:45;;;;;;;17.73;5.50;;;8.70;99.90;;;;;;5045191;28;20350;-63
2022/10/03 00:43:39;;;;;;;22.88;5.97;;;8.70;99.90;;;;;;5043857;28;20075;-62
2022/10/03 00:46:10;;;;;;;26.55;5.75;;;8.60;99.90;;;;;;5043599;28;20033;-64
2022/10/03 00:48:51;;;;;;;26.90;6.10;;;8.60;99.90;;;;;;5046594;28;20116;-63
2022/10/03 00:51:36;;;;;;;18.35;6.13;;;8.60;99.90;;;;;;5046450;28;20045;-63
2022/10/03 00:54:27;;;;;;;21.40;6.05;;;8.60;99.90;;;;;;5044221;28;20475;-63
2022/10/03 00:57:17;;;;;;;29.95;7.53;;;8.50;99.90;;;;;;5042505;28;20033;-63
2022/10/03 01:00:01;;;;;;;21.70;6.18;;;8.50;99.90;;;;;;5044319;28;20406;-64
2022/10/03 01:02:38;;;;;;;30.02;6.70;;;8.40;99.90;;;;;;5045453;28;20033;-63
2022/10/03 01:05:40;;;;;;;27.20;6.95;;;8.40;99.90;;;;;;5046095;28;20032;-63
2022/10/03 01:08:37;;;;;;;18.02;6.13;;;8.30;99.90;;;;;;5043485;28;20102;-63
2022/10/03 01:11:08;;;;;;;12.25;5.65;;;8.30;99.90;;;;;;5046552;28;20432;-63
2022/10/03 01:13:54;;;;;;;12.85;6.78;;;8.20;99.90;;;;;;5045891;28;20029;-63
2022/10/03 01:16:26;;;;;;;14.65;6.00;;;8.20;99.90;;;;;;5046306;28;20025;-62
2022/10/03 01:19:46;;;;;;;11.88;5.75;;;8.10;99.90;;;;;;5026117;28;20120;-63
2022/10/03 01:22:55;;;;;;;13.60;7.13;;;8.00;99.90;;;;;;4969412;28;20500;-63
2022/10/03 01:25:36;;;;;;;14.85;5.68;;;8.00;99.90;;;;;;5049259;28;20385;-63
2022/10/03 01:31:40;;;;;;;21.80;5.28;;;7.80;99.90;;;;;;5029325;28;20418;-63
2022/10/03 01:34:36;;;;;;;24.05;6.20;;;7.80;99.90;;;;;;5047793;28;20025;-63
2022/10/03 01:37:28;;;;;;;16.33;5.85;;;7.70;99.90;;;;;;5047177;28;20495;-63
2022/10/03 01:40:19;;;;;;;11.68;4.95;;;7.70;99.90;;;;;;5048847;28;20029;-63
2022/10/03 01:42:59;;;;;;;15.65;5.32;;;7.70;99.90;;;;;;5047669;28;20021;-63
2022/10/03 01:46:11;;;;;;;13.10;5.25;;;7.70;99.90;;;;;;5047622;28;20020;-63
2022/10/03 01:48:51;;;;;;;13.32;5.97;;;7.60;99.90;;;;;;5027968;28;20494;-63
2022/10/03 01:51:41;;;;;;;14.70;6.05;;;7.60;99.90;;;;;;5048696;28;20035;-63
2022/10/03 01:54:25;;;;;;;9.27;5.72;;;7.70;99.90;;;;;;5048599;28;20083;-63
2022/10/03 01:57:09;;;;;;;11.27;5.50;;;7.70;99.90;;;;;;5045821;28;20032;-64
2022/10/03 01:59:54;;;;;;;;;;;7.80;99.90;;;;;;5048155;28;20044;-63
2022/10/03 02:02:57;;;;;;;22.05;5.65;;;7.80;99.90;;;;;;5047461;28;19980;-63
2022/10/03 02:06:03;;;;;;;15.68;6.07;;;7.90;99.90;;;;;;5045737;28;20025;-63
2022/10/03 02:08:44;;;;;;;20.42;5.50;;;7.90;99.90;;;;;;5045701;28;20025;-63
2022/10/03 02:11:21;;;;;;;15.38;6.10;;;8.00;99.90;;;;;;5047603;28;20064;-63
2022/10/03 02:13:57;;;;;;;17.30;6.18;;;8.00;99.90;;;;;;5041394;28;20106;-63
2022/10/03 02:16:44;;;;;;;17.67;5.72;;;8.10;99.90;;;;;;5045388;28;20192;-62
2022/10/03 02:19:24;;;;;;;18.23;6.47;;;8.10;99.90;;;;;;5049504;28;20037;-57
2022/10/03 02:21:52;;;;;;;13.57;6.18;;;8.20;99.90;;;;;;5040597;28;20417;-64
2022/10/03 02:24:42;;;;;;;12.50;5.47;;;8.20;99.90;;;;;;5046045;28;20058;-63
2022/10/03 02:27:26;;;;;;;11.93;5.32;;;8.20;99.90;;;;;;5046862;28;21597;-57
2022/10/03 02:30:14;;;;;;;14.45;6.22;;;8.20;99.90;;;;;;5029557;28;20040;-63
2022/10/03 02:33:01;;;;;;;18.73;7.53;;;8.20;99.90;;;;;;5048177;28;20018;-63
2022/10/03 02:36:04;;;;;;;14.48;6.30;;;8.10;99.90;;;;;;5046713;28;20044;-63
2022/10/03 02:39:03;;;;;;;15.00;6.18;;;8.00;99.90;;;;;;5008819;28;20114;-63
2022/10/03 02:41:54;;;;;;;17.45;6.05;;;7.90;99.90;;;;;;5047346;28;20060;-64
2022/10/03 02:44:22;;;;;;;13.68;6.15;;;7.80;99.90;;;;;;5031310;28;20025;-63
2022/10/03 02:46:58;;;;;;;24.42;7.03;;;7.70;99.90;;;;;;5042156;28;20024;-63
2022/10/03 02:49:51;;;;;;;14.55;6.57;;;7.70;99.90;;;;;;5048377;28;20035;-63
2022/10/03 02:52:28;;;;;;;19.35;6.10;;;7.60;99.90;;;;;;5048183;28;20187;-63
2022/10/03 02:55:12;;;;;;;17.00;6.43;;;7.60;99.90;;;;;;5047608;28;20036;-62
2022/10/03 02:58:10;;;;;;;24.63;7.47;;;7.50;99.90;;;;;;5031759;28;20036;-63
2022/10/03 03:01:19;;;;;;;14.77;6.32;;;7.60;99.90;;;;;;5048403;28;20029;-63
2022/10/03 03:04:11;;;;;;;16.13;6.28;;;7.60;99.90;;;;;;5047591;28;20024;-63
2022/10/03 03:07:23;;;;;;;17.02;6.53;;;7.60;99.90;;;;;;5023743;28;20094;-62
2022/10/03 03:10:16;;;;;;;20.60;6.90;;;7.60;99.90;;;;;;5033040;28;20045;-64
2022/10/03 03:13:10;;;;;;;32.45;9.45;;;7.50;99.90;;;;;;5028591;28;20112;-63
2022/10/03 03:15:42;;;;;;;25.48;8.30;;;7.50;99.90;;;;;;5047458;28;20063;-63
2022/10/03 03:18:40;;;;;;;20.85;7.82;;;7.50;99.90;;;;;;5046314;28;20025;-63
2022/10/03 03:21:40;;;;;;;29.25;9.07;;;7.50;99.90;;;;;;5049202;28;20025;-63
2022/10/03 03:24:42;;;;;;;26.73;9.35;;;7.50;99.90;;;;;;5045941;28;20025;-63
2022/10/03 03:27:24;;;;;;;34.45;9.07;;;7.50;99.90;;;;;;5030693;28;20025;-63
2022/10/03 03:30:02;;;;;;;30.90;8.55;;;7.50;99.90;;;;;;5029084;28;20098;-64
2022/10/03 03:32:43;;;;;;;33.40;8.82;;;7.40;99.90;;;;;;5046436;28;20027;-63
2022/10/03 03:35:21;;;;;;;27.95;9.38;;;7.40;99.90;;;;;;5044295;28;20021;-61
2022/10/03 03:38:02;;;;;;;28.80;8.18;;;7.30;99.90;;;;;;5045975;28;20099;-64
2022/10/03 03:40:53;;;;;;;21.52;7.45;;;7.30;99.90;;;;;;5047525;28;20499;-63
2022/10/03 03:43:43;;;;;;;18.85;7.18;;;7.30;99.90;;;;;;5045824;28;20079;-63
2022/10/03 03:46:52;;;;;;;22.02;6.85;;;7.20;99.90;;;;;;5043138;28;20447;-63
2022/10/03 03:49:28;;;;;;;15.23;5.38;;;7.20;99.90;;;;;;5042902;28;20040;-64
2022/10/03 03:51:59;;;;;;;22.27;6.10;;;7.10;99.90;;;;;;5044729;28;20020;-63
2022/10/03 03:55:15;;;;;;;14.15;5.22;;;7.10;99.90;;;;;;5046616;28;20036;-64
2022/10/03 03:57:59;;;;;;;15.38;5.90;;;7.10;99.90;;;;;;4965558;28;20070;-63
2022/10/03 04:00:41;;;;;;;13.13;5.15;;;7.10;99.90;;;;;;5046885;28;20108;-63
2022/10/03 04:03:36;;;;;;;13.45;5.32;;;7.10;99.90;;;;;;5029303;28;20048;-61
2022/10/03 04:06:11;;;;;;;;;;;7.10;99.90;;;;;;5045790;28;20064;-63
2022/10/03 04:09:02;;;;;;;16.30;5.22;;;7.20;99.90;;;;;;5044912;28;19923;-63
2022/10/03 04:11:48;;;;;;;11.10;5.65;;;7.20;99.90;;;;;;5046294;28;20466;-63
2022/10/03 04:14:42;;;;;;;12.85;5.13;;;7.20;99.90;;;;;;5045534;28;20025;-64
2022/10/03 04:20:33;;;;;;;10.88;4.65;;;7.30;99.90;;;;;;5025832;28;21849;-63
2022/10/03 04:23:17;;;;;;;9.13;5.30;;;7.30;99.90;;;;;;5043562;28;20025;-63
2022/10/03 04:26:14;;;;;;;15.50;5.30;;;7.30;99.90;;;;;;5045662;28;20120;-63
2022/10/03 04:29:01;;;;;;;8.50;4.60;;;7.30;99.90;;;;;;5045975;28;20048;-63
2022/10/03 04:31:40;;;;;;;9.50;4.75;;;7.20;99.90;;;;;;5019781;28;20036;-64
2022/10/03 04:34:08;;;;;;;8.65;5.00;;;7.20;99.90;;;;;;5047389;28;20035;-64
2022/10/03 04:36:58;;;;;;;11.10;5.18;;;7.20;99.90;;;;;;5046378;28;20028;-64
2022/10/03 04:40:00;;;;;;;15.23;4.70;;;7.20;99.90;;;;;;5036389;28;20057;-63
2022/10/03 04:42:57;;;;;;;12.88;4.45;;;7.20;99.90;;;;;;5019760;28;20632;-63
2022/10/03 04:45:37;;;;;;;14.88;4.90;;;7.20;99.90;;;;;;5046358;28;20028;-63
2022/10/03 04:48:09;;;;;;;11.57;4.20;;;7.10;99.90;;;;;;5047246;28;20448;-63
2022/10/03 04:50:44;;;;;;;13.93;5.03;;;7.10;99.90;;;;;;5041203;28;20068;-64
2022/10/03 04:53:32;;;;;;;16.77;6.47;;;7.10;99.90;;;;;;5047169;28;20024;-57
2022/10/03 04:56:43;;;;;;;11.50;5.15;;;7.10;99.90;;;;;;5040371;28;20074;-63
2022/10/03 04:59:24;;;;;;;14.23;5.65;;;7.10;99.90;;;;;;5026945;28;20124;-62
2022/10/03 05:02:02;;;;;;;16.50;6.10;;;7.10;99.90;;;;;;5046301;28;20025;-63
2022/10/03 05:05:11;;;;;;;18.63;7.18;;;7.10;99.90;;;;;;5025996;28;20630;-63
2022/10/03 05:07:47;;;;;;;21.50;7.35;;;7.20;99.90;;;;;;5044491;28;20040;-64
2022/10/03 05:10:43;;;;;;;26.15;7.78;;;7.10;99.90;;;;;;5044348;28;20033;-62
2022/10/03 05:13:18;;;;;;;13.80;6.15;;;7.20;99.90;;;;;;5044389;28;20028;-61
2022/10/03 05:15:49;;;;;;;26.25;6.90;;;7.10;99.90;;;;;;5042800;28;20091;-63
2022/10/03 05:18:34;;;;;;;19.80;6.40;;;7.10;99.90;;;;;;5041435;28;20033;-63
2022/10/03 05:21:20;;;;;;;11.80;5.93;;;7.10;99.90;;;;;;5044685;28;20028;-64
2022/10/03 05:24:02;;;;;;;24.05;6.55;;;7.00;99.90;;;;;;5046755;28;20045;-63
2022/10/03 05:26:36;;;;;;;13.23;6.03;;;7.00;99.90;;;;;;5027262;28;20041;-63
2022/10/03 05:29:19;;;;;;;19.83;6.07;;;7.00;99.90;;;;;;5045043;28;20036;-63
2022/10/03 05:32:00;;;;;;;37.35;5.70;;;7.10;99.90;;;;;;5024030;28;20183;-64
2022/10/03 05:34:50;;;;;;;16.70;6.47;;;7.10;99.90;;;;;;5045693;28;20103;-63
2022/10/03 05:37:46;;;;;;;18.30;7.47;;;7.10;99.90;;;;;;5046306;28;20025;-59
2022/10/03 05:40:27;;;;;;;31.48;8.52;;;7.10;99.90;;;;;;5045030;28;20014;-63
2022/10/03 05:43:22;;;;;;;31.90;7.72;;;7.20;99.90;;;;;;5024379;28;20021;-64
2022/10/03 05:46:07;;;;;;;22.02;5.82;;;7.20;99.90;;;;;;5040570;28;20043;-63
2022/10/03 05:48:54;;;;;;;33.15;6.85;;;7.30;99.90;;;;;;5045879;28;20025;-63
2022/10/03 05:51:42;;;;;;;22.55;7.60;;;7.40;99.90;;;;;;5045957;28;20025;-64
2022/10/03 05:54:42;;;;;;;19.67;6.90;;;7.40;99.90;;;;;;5043171;28;20121;-62
2022/10/03 05:57:13;;;;;;;32.47;8.90;;;7.50;99.90;;;;;;5042116;28;20029;-64
2022/10/03 06:00:16;;;;;;;23.73;8.60;;;7.50;99.90;;;;;;5041975;28;20044;-63
2022/10/03 06:03:19;;;;;;;20.58;9.65;;;7.60;99.90;;;;;;5045045;28;20029;-63
2022/10/03 06:06:13;;;;;;;18.27;10.18;;;7.70;99.90;;;;;;5044742;28;20033;-63
2022/10/03 06:08:42;;;;;;;21.02;11.35;;;7.80;99.90;;;;;;5048815;28;20086;-63
2022/10/03 06:11:19;;;;;;;23.23;10.48;;;7.90;99.90;;;;;;5048432;28;20017;-62
2022/10/03 06:13:45;;;;;;;22.38;9.63;;;7.90;99.90;;;;;;5049036;28;20509;-63
2022/10/03 06:16:17;;;;;;;19.35;9.05;;;8.00;99.90;;;;;;5049238;28;20024;-63
2022/10/03 06:19:14;;;;;;;16.63;8.43;;;8.10;99.90;;;;;;5048784;28;20410;-63
2022/10/03 06:21:58;;;;;;;16.10;7.80;;;8.20;99.90;;;;;;5046836;28;20029;-64
2022/10/03 06:24:59;;;;;;;18.33;8.30;;;8.30;99.90;;;;;;5049865;28;20083;-63
2022/10/03 06:27:46;;;;;;;11.52;5.72;;;8.30;99.90;;;;;;5046732;28;20075;-64
2022/10/03 06:30:20;;;;;;;11.65;6.18;;;8.40;99.90;;;;;;5039665;28;20021;-63
2022/10/03 06:33:10;;;;;;;17.17;7.65;;;8.40;99.90;;;;;;5048690;28;20071;-63
2022/10/03 06:35:51;;;;;;;14.10;5.43;;;8.40;99.90;;;;;;5045007;28;20485;-63
2022/10/03 06:38:54;;;;;;;14.43;6.07;;;8.50;99.90;;;;;;5045853;28;20120;-63
2022/10/03 06:41:50;;;;;;;15.15;6.03;;;8.60;99.90;;;;;;5048157;28;20024;-63
2022/10/03 06:44:41;;;;;;;28.25;5.43;;;8.60;99.90;;;;;;5045863;28;20025;-63
2022/10/03 06:47:22;;;;;;;19.17;5.70;;;8.70;99.90;;;;;;5037987;28;20101;-63
2022/10/03 06:50:15;;;;;;;15.32;6.07;;;8.60;99.90;;;;;;5046399;28;20025;-63
2022/10/03 06:53:09;;;;;;;11.70;5.75;;;8.80;99.90;;;;;;5047577;28;20021;-63
2022/10/03 06:56:30;;;;;;;7.40;4.83;;;9.00;99.90;;;;;;5045283;28;20390;-63
2022/10/03 06:59:03;;;;;;;28.90;5.38;;;9.20;99.90;;;;;;4986750;28;20380;-63
2022/10/03 07:01:55;;;;;;;16.17;5.90;;;9.00;99.90;;;;;;5028263;28;20044;-62
2022/10/03 07:04:30;;;;;;;11.85;7.30;;;9.00;99.90;;;;;;5009926;28;20044;-63
2022/10/03 07:07:04;;;;;;;19.52;7.65;;;8.90;99.90;;;;;;5048922;28;20029;-63
2022/10/03 07:09:52;;;;;;;13.25;7.63;;;8.90;99.90;;;;;;5046994;28;20049;-63
2022/10/03 07:12:21;;;;;;;24.60;14.10;;;8.90;99.90;;;;;;5046730;28;20017;-63
2022/10/03 07:15:21;;;;;;;17.88;9.15;;;9.00;99.90;;;;;;5042075;28;20052;-63
2022/10/03 07:17:57;;;;;;;14.65;8.73;;;9.20;99.90;;;;;;5046689;28;20029;-63
2022/10/03 07:20:52;;;;;;;14.80;9.18;;;9.30;99.90;;;;;;5048056;28;20056;-64
2022/10/03 07:23:42;;;;;;;14.35;7.88;;;9.50;99.90;;;;;;5048336;28;20526;-63
2022/10/03 07:26:29;;;;;;;16.55;7.63;;;9.70;99.90;;;;;;5047200;28;20041;-63
2022/10/03 07:29:13;;;;;;;13.95;9.23;;;9.80;99.90;;;;;;5044719;28;20056;-63
2022/10/03 07:32:06;;;;;;;26.02;7.85;;;10.00;99.90;;;;;;5025604;28;20056;-63
2022/10/03 07:34:40;;;;;;;16.88;7.95;;;10.20;99.90;;;;;;5047160;28;20142;-63
2022/10/03 07:40:35;;;;;;;12.68;7.57;;;10.60;99.90;;;;;;5042190;28;20421;-63
2022/10/03 07:43:22;;;;;;;15.10;7.88;;;10.90;99.90;;;;;;5046476;28;20031;-63
2022/10/03 07:46:29;;;;;;;14.43;8.95;;;11.00;99.90;;;;;;5018744;28;20035;-63
2022/10/03 07:49:17;;;;;;;15.70;9.18;;;11.00;99.90;;;;;;5044420;28;20626;-63
2022/10/03 07:52:24;;;;;;;17.00;9.25;;;11.20;99.90;;;;;;5044102;28;20749;-63
2022/10/03 07:55:08;;;;;;;18.38;9.45;;;11.30;99.90;;;;;;5045662;28;20025;-63
2022/10/03 07:57:50;;;;;;;22.80;8.95;;;11.30;99.90;;;;;;5045739;28;20399;-63
2022/10/03 08:00:41;;;;;;;22.60;8.48;;;11.60;99.90;;;;;;5045399;28;20032;-64
2022/10/03 08:03:42;;;;;;;13.98;7.82;;;11.60;99.90;;;;;;5042611;28;20123;-64
2022/10/03 08:06:22;;;;;;;15.52;8.75;;;11.60;99.90;;;;;;5045593;28;20052;-63
2022/10/03 08:08:56;;;;;;;16.75;8.32;;;11.80;99.90;;;;;;5046346;28;20094;-63
2022/10/03 08:11:25;;;;;;;17.33;9.23;;;11.80;99.90;;;;;;5045278;28;21986;-63
2022/10/03 08:14:05;;;;;;;15.20;8.77;;;12.20;99.90;;;;;;5045672;28;20036;-63
2022/10/03 08:16:49;;;;;;;15.15;8.30;;;12.40;99.90;;;;;;5023029;28;20025;-63
2022/10/03 08:19:18;;;;;;;9.80;7.18;;;12.80;99.90;;;;;;5043080;28;20029;-64
2022/10/03 08:22:05;;;;;;;18.33;8.32;;;13.10;99.90;;;;;;5045348;28;20458;-63
2022/10/03 08:24:53;;;;;;;17.10;7.88;;;13.00;99.90;;;;;;5044943;28;20174;-64
2022/10/03 08:27:27;;;;;;;17.80;8.13;;;13.10;99.90;;;;;;5044484;28;20035;-63
2022/10/03 08:30:31;;;;;;;13.15;7.38;;;13.30;99.90;;;;;;5044489;28;20108;-63
2022/10/03 08:33:22;;;;;;;13.98;7.47;;;13.40;99.90;;;;;;4949574;28;20561;-64
2022/10/03 08:36:13;;;;;;;23.83;8.13;;;13.50;99.90;;;;;;5040198;28;20017;-64
2022/10/03 08:39:00;;;;;;;16.05;7.68;;;13.30;99.90;;;;;;5033208;28;20116;-64
2022/10/03 08:41:49;;;;;;;21.10;8.30;;;12.90;99.90;;;;;;5038642;28;20028;-64
2022/10/03 08:44:15;;;;;;;16.67;8.63;;;12.90;99.90;;;;;;5040863;28;20032;-64
2022/10/03 08:47:06;;;;;;;11.07;5.78;;;12.80;99.90;;;;;;5040225;28;20032;-64
2022/10/03 08:49:44;;;;;;;11.50;6.82;;;12.90;99.90;;;;;;5040940;28;20037;-64
2022/10/03 08:52:26;;;;;;;19.33;7.20;;;13.30;99.90;;;;;;5046187;28;20068;-63
2022/10/03 08:55:02;;;;;;;11.45;7.18;;;13.40;99.90;;;;;;5043942;28;20035;-63
2022/10/03 08:57:52;;;;;;;15.32;7.18;;;13.40;99.90;;;;;;5040237;28;20501;-63
2022/10/03 09:00:47;;;;;;;14.32;7.18;;;13.20;99.90;;;;;;5038298;28;20029;-64
2022/10/03 09:03:52;;;;;;;10.25;6.43;;;13.30;99.90;;;;;;5040981;28;20452;-63
2022/10/03 09:06:42;;;;;;;14.45;6.60;;;13.30;99.90;;;;;;5043177;28;20029;-64
2022/10/03 09:09:27;;;;;;;22.15;7.03;;;13.20;99.90;;;;;;5042976;28;20522;-64
2022/10/03 09:12:22;;;;;;;16.42;6.82;;;13.40;99.90;;;;;;5037641;28;20032;-63
2022/10/03 09:15:02;;;;;;;20.27;7.40;;;13.70;99.90;;;;;;5043044;28;20033;-63
2022/10/03 09:17:48;;;;;;;13.63;5.75;;;13.90;99.90;;;;;;5041343;28;20025;-64
2022/10/03 09:20:19;;;;;;;11.23;6.10;;;14.30;99.90;;;;;;5040351;28;20494;-64
2022/10/03 09:23:13;;;;;;;18.10;7.68;;;14.70;99.90;;;;;;5045672;28;20082;-64
2022/10/03 09:26:05;;;;;;;15.07;6.85;;;15.00;99.90;;;;;;5041588;28;20025;-63
2022/10/03 09:28:58;;;;;;;15.43;6.75;;;15.20;99.90;;;;;;5043818;28;20037;-63
2022/10/03 09:31:54;;;;;;;12.68;6.35;;;15.20;99.90;;;;;;5029442;28;20040;-63
2022/10/03 09:34:26;;;;;;;15.30;6.68;;;15.50;99.90;;;;;;5043032;28;20550;-64
2022/10/03 09:37:03;;;;;;;15.07;6.68;;;15.80;99.90;;;;;;5041663;28;20124;-63
2022/10/03 09:39:56;;;;;;;13.52;5.80;;;16.00;99.90;;;;;;5041344;28;20025;-64
2022/10/03 09:42:59;;;;;;;13.15;6.30;;;16.10;99.90;;;;;;5049012;28;20074;-63
2022/10/03 09:45:46;;;;;;;13.45;7.15;;;16.30;99.90;;;;;;5047046;28;20055;-64
2022/10/03 09:48:22;;;;;;;15.85;6.88;;;16.30;99.90;;;;;;5048631;28;20036;-64
2022/10/03 09:51:00;;;;;;;15.15;6.72;;;15.80;99.90;;;;;;5046347;28;20514;-64
2022/10/03 09:53:53;;;;;;;12.45;5.45;;;15.60;99.90;;;;;;5047322;28;20053;-64
2022/10/03 09:56:24;;;;;;;16.13;6.20;;;15.90;99.90;;;;;;5045623;28;20021;-64
2022/10/03 09:59:07;;;;;;;13.15;6.47;;;15.90;99.90;;;;;;5047995;28;20398;-64
2022/10/03 10:01:36;;;;;;;11.73;6.47;;;16.20;99.90;;;;;;5048973;28;20028;-64
2022/10/03 10:04:20;;;;;;;13.90;5.93;;;16.80;99.90;;;;;;5046936;28;20036;-63
2022/10/03 10:07:10;;;;;;;17.77;7.03;;;17.10;99.90;;;;;;5046930;28;20495;-61
2022/10/03 10:10:09;;;;;;;13.50;7.00;;;16.60;99.90;;;;;;5046635;28;20460;-61
2022/10/03 10:13:10;;;;;;;21.55;6.97;;;16.60;99.90;;;;;;5047406;28;20025;-62
2022/10/03 10:15:56;;;;;;;13.38;6.00;;;16.30;99.90;;;;;;5045935;28;20029;-64
2022/10/03 10:18:38;;;;;;;13.27;5.97;;;16.70;99.90;;;;;;5039546;28;20055;-64
2022/10/03 10:21:22;;;;;;;8.85;2.92;;;17.10;99.90;;;;;;5046849;28;20035;-64
2022/10/03 10:24:20;;;;;;;11.55;5.53;;;17.20;99.90;;;;;;5045575;28;20388;-63
2022/10/03 10:26:55;;;;;;;15.30;3.42;;;17.40;99.90;;;;;;5044640;28;20565;-64
2022/10/03 10:29:41;;;;;;;6.63;2.30;;;17.30;99.90;;;;;;5048545;28;20032;-64
2022/10/03 10:32:10;;;;;;;6.43;2.47;;;17.70;99.90;;;;;;5026083;28;20071;-64
2022/10/03 10:34:45;;;;;;;10.80;3.25;;;17.60;99.90;;;;;;5020226;28;20742;-64
2022/10/03 10:37:32;;;;;;;10.43;2.55;;;17.30;99.90;;;;;;5045985;28;20052;-65
2022/10/03 10:40:27;;;;;;;9.98;3.38;;;17.50;99.90;;;;;;5045655;28;20100;-63
2022/10/03 10:43:29;;;;;;;9.82;1.98;;;17.90;99.90;;;;;;5046868;28;20033;-64
2022/10/03 10:46:18;;;;;;;14.57;3.45;;;17.60;99.90;;;;;;5046439;28;20494;-65
2022/10/03 10:49:08;;;;;;;15.55;2.95;;;17.60;99.90;;;;;;5044276;28;20044;-64
2022/10/03 10:51:56;;;;;;;6.28;1.60;;;17.60;99.90;;;;;;5028051;28;20367;-63
2022/10/03 10:54:47;;;;;;;9.30;2.47;;;17.40;99.90;;;;;;5044462;28;20064;-64
2022/10/03 10:57:23;;;;;;;10.05;3.55;;;17.40;99.90;;;;;;5047039;28;20524;-63
2022/10/03 11:00:16;;;;;;;8.77;1.40;;;17.30;99.90;;;;;;5028251;28;20028;-63
2022/10/03 11:03:13;;;;;;;10.90;2.60;;;17.10;99.90;;;;;;5044311;28;20045;-63
2022/10/03 11:06:21;;;;;;;11.32;2.00;;;16.80;99.90;;;;;;5046124;28;20433;-64
2022/10/03 11:09:27;;;;;;;5.57;1.63;;;16.80;99.90;;;;;;5047646;28;20731;-64
2022/10/03 11:12:28;;;;;;;9.00;1.80;;;17.00;99.90;;;;;;5027315;28;20037;-64
2022/10/03 11:15:11;;;;;;;10.52;1.75;;;17.00;99.90;;;;;;5042049;28;20025;-65
2022/10/03 11:17:46;;;;;;;5.23;1.43;;;17.40;99.90;;;;;;5044003;28;20088;-61
2022/10/03 11:20:50;;;;;;;4.50;1.70;;;18.20;99.60;;;;;;5047654;28;20025;-61
2022/10/03 11:23:18;;;;;;;9.48;1.60;;;18.40;97.70;;;;;;5044016;28;20053;-61
2022/10/03 11:26:05;;;;;;;7.65;1.98;;;18.60;99.20;;;;;;5045519;28;20490;-62
2022/10/03 11:29:10;;;;;;;11.73;3.05;;;18.80;98.90;;;;;;5025261;28;20037;-61
2022/10/03 11:32:01;;;;;;;8.50;1.88;;;18.50;99.50;;;;;;5009889;28;20075;-62
2022/10/03 11:35:01;;;;;;;35.58;12.02;;;18.30;99.90;;;;;;5046278;28;20096;-61
2022/10/03 11:37:26;;;;;;;15.10;2.33;;;18.40;99.30;;;;;;5039287;28;20017;-65
2022/10/03 11:40:23;;;;;;;10.63;1.52;;;17.80;99.40;;;;;;5044969;28;20079;-64
2022/10/03 11:43:13;;;;;;;10.48;2.00;;;17.70;99.20;;;;;;5037786;28;20029;-65
2022/10/03 11:45:53;;;;;;;7.28;1.80;;;17.80;97.90;;;;;;5044578;28;20029;-64
2022/10/03 11:48:42;;;;;;;6.22;1.90;;;17.70;97.20;;;;;;5042940;28;20380;-65
2022/10/03 11:51:15;;;;;;;6.70;1.38;;;17.70;99.30;;;;;;5044013;28;20150;-65
2022/10/03 11:53:52;;;;;;;3.00;1.23;;;17.60;97.70;;;;;;5044971;28;20479;-64
2022/10/03 11:56:42;;;;;;;5.00;1.80;;;17.40;99.40;;;;;;5042621;28;20055;-64
2022/10/03 11:59:17;;;;;;;4.95;1.02;;;17.50;99.30;;;;;;5040200;28;20048;-64
2022/10/03 12:01:52;;;;;;;4.97;1.48;;;17.50;97.20;;;;;;5045504;28;20036;-64
2022/10/03 12:04:23;;;;;;;4.90;0.90;;;17.50;96.10;;;;;;5041513;28;20028;-64
2022/10/03 12:09:56;;;;;;;9.20;1.95;;;17.80;98.00;;;;;;5039061;28;20063;-64
2022/10/03 12:12:29;;;;;;;6.40;1.50;;;17.80;97.60;;;;;;5042910;28;20052;-64
2022/10/03 12:15:13;;;;;;;5.43;1.80;;;18.00;96.30;;;;;;5044583;28;20071;-65
2022/10/03 12:17:54;;;;;;;6.57;1.83;;;17.90;96.60;;;;;;5023022;28;20398;-63
2022/10/03 12:20:25;;;;;;;5.13;1.10;;;18.20;95.60;;;;;;5039777;28;20024;-63
2022/10/03 12:23:00;;;;;;;6.50;1.23;;;18.10;94.80;;;;;;5039474;28;20025;-65
2022/10/03 12:25:30;;;;;;;3.85;1.33;;;17.80;94.70;;;;;;5041220;28;20120;-64
2022/10/03 12:28:15;;;;;;;5.60;1.52;;;18.00;95.70;;;;;;5042102;28;20033;-63
2022/10/03 12:31:03;;;;;;;4.40;1.52;;;18.10;96.30;;;;;;5042196;28;20029;-63
2022/10/03 12:33:52;;;;;;;6.03;1.42;;;18.00;95.80;;;;;;5041387;28;20040;-64
2022/10/03 12:36:42;;;;;;;4.47;1.50;;;18.00;95.40;;;;;;5038893;28;20078;-65
2022/10/03 12:39:20;;;;;;;10.68;2.05;;;18.20;96.40;;;;;;5035369;28;20055;-64
2022/10/03 12:42:04;;;;;;;5.93;2.10;;;18.30;95.50;;;;;;5025740;28;20032;-63
2022/10/03 12:44:45;;;;;;;4.25;1.48;;;18.80;93.00;;;;;;5042753;28;20080;-65
2022/10/03 12:47:29;;;;;;;5.47;1.35;;;18.90;94.00;;;;;;5041730;28;20039;-63
2022/10/03 12:50:36;;;;;;;8.05;1.60;;;18.40;95.00;;;;;;5040987;28;20061;-64
2022/10/03 12:53:14;;;;;;;2.97;0.80;;;18.30;94.90;;;;;;5032661;28;20064;-64
2022/10/03 12:55:58;;;;;;;7.45;1.90;;;18.10;95.90;;;;;;5022914;28;20116;-64
2022/10/03 12:58:33;;;;;;;;;;;17.80;96.10;;;;;;5043593;28;20051;-64
2022/10/03 13:01:10;;;;;;;;;;;17.60;96.20;;;;;;5043632;28;19917;-65
2022/10/03 13:03:43;;;;;;;4.05;1.05;;;17.60;96.90;;;;;;5040550;28;20062;-64
2022/10/03 13:06:32;;;;;;;10.98;2.03;;;17.70;96.40;;;;;;5037440;28;20505;-64
2022/10/03 13:09:16;;;;;;;5.30;1.40;;;17.80;96.50;;;;;;5045640;28;20033;-64
2022/10/03 13:11:44;;;;;;;4.90;1.42;;;17.70;95.50;;;;;;5040390;28;20510;-64
2022/10/03 13:14:46;;;;;;;5.63;1.35;;;18.10;95.00;;;;;;5025266;28;20059;-64
2022/10/03 13:17:38;;;;;;;5.10;1.48;;;18.20;94.50;;;;;;4976853;28;20093;-63
2022/10/03 13:20:24;;;;;;;9.60;1.35;;;18.20;94.30;;;;;;5040719;28;20495;-64
2022/10/03 13:23:02;;;;;;;3.85;1.55;;;18.00;95.40;;;;;;5043390;28;20033;-64
2022/10/03 13:25:45;;;;;;;7.28;1.38;;;18.40;95.30;;;;;;5041297;28;20028;-63
2022/10/03 13:28:19;;;;;;;5.50;1.40;;;18.60;93.80;;;;;;5037340;28;20033;-64
2022/10/03 13:30:58;;;;;;;1.95;1.10;;;18.70;93.10;;;;;;5042793;28;20161;-61
2022/10/03 13:33:27;;;;;;;4.68;1.80;;;18.40;95.10;;;;;;5043439;28;20495;-61
2022/10/03 13:36:15;;;;;;;3.67;1.05;;;18.40;94.10;;;;;;5039315;28;20049;-64
2022/10/03 13:39:10;;;;;;;7.35;1.75;;;18.50;92.40;;;;;;5041801;28;20079;-64
2022/10/03 13:41:48;;;;;;;5.60;1.33;;;18.30;92.70;;;;;;5015969;28;20041;-64
2022/10/03 13:44:16;;;;;;;6.18;1.65;;;18.20;93.60;;;;;;5043815;28;20541;-64
2022/10/03 13:47:05;;;;;;;8.23;1.30;;;18.10;93.60;;;;;;5047707;28;20035;-64
2022/10/03 13:49:43;;;;;;;1.95;1.13;;;17.90;94.80;;;;;;5048611;28;20044;-64
2022/10/03 13:52:32;;;;;;;4.93;1.48;;;17.60;95.20;;;;;;5047992;28;20573;-64
2022/10/03 13:55:10;;;;;;;6.88;1.30;;;17.20;96.00;;;;;;5043508;28;20028;-64
2022/10/03 13:57:47;;;;;;;8.07;1.42;;;17.30;95.10;;;;;;5045953;28;20033;-64
2022/10/03 14:00:23;;;;;;;7.57;2.13;;;17.30;94.20;;;;;;5039038;28;20032;-63
2022/10/03 14:02:57;;;;;;;5.15;1.63;;;17.40;94.70;;;;;;5042617;28;20965;-63
2022/10/03 14:05:35;;;;;;;4.47;1.40;;;17.40;94.90;;;;;;5044252;28;20033;-64
2022/10/03 14:08:38;;;;;;;5.43;1.30;;;17.40;94.70;;;;;;5044077;28;20024;-64
2022/10/03 14:11:21;;;;;;;4.28;1.23;;;17.40;94.90;;;;;;5041374;28;20026;-64
2022/10/03 14:14:13;;;;;;;2.67;1.25;;;17.50;95.70;;;;;;5034008;28;20013;-64
2022/10/03 14:16:47;;;;;;;5.35;1.75;;;17.70;95.20;;;;;;5041511;28;20025;-65
2022/10/03 14:19:22;;;;;;;;;;;17.70;94.00;;;;;;5040146;28;20041;-64
2022/10/03 14:21:47;;;;;;;4.35;1.25;;;17.70;93.50;;;;;;5035462;28;20298;-64
2022/10/03 14:24:27;;;;;;;1.90;1.00;;;17.70;93.20;;;;;;5046571;28;20044;-65
2022/10/03 14:27:02;;;;;;;5.00;1.45;;;17.60;93.40;;;;;;5042573;28;20047;-64
2022/10/03 14:29:50;;;;;;;11.23;4.72;;;17.60;93.60;;;;;;5045517;28;20053;-64
2022/10/03 14:32:44;;;;;;;18.05;6.20;;;17.50;95.30;;;;;;5025950;28;20304;-64
2022/10/03 14:35:47;;;;;;;16.37;7.07;;;17.20;96.10;;;;;;5017082;28;20029;-64